ADDS METAR Data INFO
IDs: Format: Raw Decoded Include TAF

Data at: 0352 UTC 18 Oct 2017

KLWA 180337Z AUTO 21005KT 10SM CLR 14/05 A3018 RMK AO2 T01390046
KLWA 180316Z AUTO 21005KT 10SM CLR 14/05 A3017 RMK AO2 T01400047
KLWA 180257Z AUTO 20005KT 10SM CLR 14/05 A3017 RMK AO2 T01410050
KLWA 180237Z AUTO 20005KT 10SM CLR 14/05 A3017 RMK AO2 T01430050
KLWA 180216Z AUTO 20005KT 10SM CLR 15/05 A3017 RMK AO2 T01450051
KLWA 180157Z AUTO 20006KT 10SM CLR 15/05 A3016 RMK AO2 T01460052
KLWA 180137Z AUTO 19006KT 10SM CLR 15/06 A3016 RMK AO2 T01480055
KLWA 180116Z AUTO 20004KT 10SM CLR 15/06 A3015 RMK AO2 T01480056
KLWA 180057Z AUTO 21004KT 10SM CLR 15/06 A3015 RMK AO2 T01490058
KLWA 180037Z AUTO 20004KT 10SM CLR 16/06 A3014 RMK AO2 T01550059
KLWA 180016Z AUTO 20004KT 10SM CLR 16/06 A3014 RMK AO2 T01590055
KLWA 172357Z AUTO 20004KT 10SM CLR 17/05 A3014 RMK AO2 T01660051 10198 20166
KLWA 172337Z AUTO 21004KT 10SM CLR 17/05 A3013 RMK AO2 T01680050
KLWA 172316Z AUTO 21005KT 10SM CLR 17/05 A3012 RMK AO2 T01720049
KLWA 172257Z AUTO 22008KT 10SM CLR 18/05 A3012 RMK AO2 T01800047
KLWA 172237Z AUTO 23009KT 10SM CLR 19/04 A3012 RMK AO2 T01880044
KLWA 172216Z AUTO 22009G16KT 10SM CLR 19/04 A3012 RMK AO2 T01930043
KLWA 172157Z AUTO 22009G14KT 10SM CLR 20/04 A3012 RMK AO2 T01950043
KLWA 172137Z AUTO 23008G17KT 10SM CLR 20/05 A3013 RMK AO2 T01960046
KLWA 172116Z AUTO 22013G21KT 10SM CLR 20/04 A3013 RMK AO2 T01960044
KLWA 172057Z AUTO 22012G19KT 10SM CLR 20/05 A3014 RMK AO2 T01970045
KLWA 172037Z AUTO 23015G22KT 10SM CLR 20/05 A3014 RMK AO2 T01950046
KLWA 172017Z AUTO 22014G24KT 10SM CLR 19/05 A3014 RMK AO2 T01930048
KLWA 171957Z AUTO 23013G20KT 10SM CLR 19/05 A3014 RMK AO2 T01940050
KLWA 171937Z AUTO 22016G24KT 10SM CLR 19/06 A3015 RMK AO2 T01910056
KLWA 171916Z AUTO 24016G22KT 10SM CLR 19/06 A3015 RMK AO2 T01870058
KLWA 171857Z AUTO 22017G22KT 10SM CLR 19/06 A3016 RMK AO2 T01850060
KLWA 171836Z AUTO 22014G25KT 10SM CLR 18/06 A3016 RMK AO2 T01800058
KLWA 171817Z AUTO 22016G26KT 10SM CLR 18/06 A3017 RMK AO2 T01770056
KLWA 171757Z AUTO 23014G22KT 10SM CLR 18/06 A3017 RMK AO2 T01770060 10177 20092
KLWA 171736Z AUTO 22015G23KT 10SM CLR 17/06 A3018 RMK AO2 T01720062
KLWA 171717Z AUTO 23018G25KT 10SM CLR 17/06 A3018 RMK AO2 T01710061
KLWA 171657Z AUTO 23015G24KT 10SM CLR 17/06 A3019 RMK AO2 T01700063
KLWA 171636Z AUTO 22017G24KT 10SM CLR 17/06 A3019 RMK AO2 T01660062
KLWA 171617Z AUTO 23016G24KT 10SM CLR 16/06 A3019 RMK AO2 T01640062
KLWA 171557Z AUTO 22011G22KT 10SM CLR 16/06 A3019 RMK AO2 T01590064
KLWA 171536Z AUTO 22013G23KT 10SM CLR 16/07 A3019 RMK AO2 T01560065
KLWA 171517Z AUTO 23013G22KT 10SM CLR 15/06 A3019 RMK AO2 T01520061
KLWA 171457Z AUTO 23014G19KT 10SM CLR 15/06 A3019 RMK AO2 T01480056
KLWA 171436Z AUTO 22009G15KT 10SM CLR 14/06 A3019 RMK AO2 T01420055
KLWA 171417Z AUTO 21008G17KT 10SM CLR 13/05 A3019 RMK AO2 T01330049
KLWA 171357Z AUTO 21011G18KT 10SM CLR 13/05 A3019 RMK AO2 T01260045
KLWA 171337Z AUTO 21011G16KT 10SM CLR 12/04 A3019 RMK AO2 T01200042
KLWA 171317Z AUTO 21008G15KT 10SM CLR 11/04 A3019 RMK AO2 T01130040
KLWA 171256Z AUTO 21007KT 10SM CLR 11/04 A3019 RMK AO2 T01060038
KLWA 171237Z AUTO 21006KT 10SM CLR 10/04 A3019 RMK AO2 T01000040
KLWA 171217Z AUTO 20007KT 10SM CLR 10/04 A3019 RMK AO2 T00950040
KLWA 171156Z AUTO 20007KT 10SM CLR 09/04 A3019 RMK AO2 T00920038 10095 20083
KLWA 171137Z AUTO 20006KT 10SM CLR 09/04 A3019 RMK AO2 T00930040
KLWA 171117Z AUTO 20006KT 10SM CLR 09/04 A3019 RMK AO2 T00940041
KLWA 171056Z AUTO 20006KT 10SM CLR 10/04 A3020 RMK AO2 T00950043
KLWA 171037Z AUTO 20005KT 10SM CLR 09/04 A3020 RMK AO2 T00930044
KLWA 171017Z AUTO 20006KT 10SM CLR 09/04 A3020 RMK AO2 T00930043
KLWA 170956Z AUTO 20005KT 10SM CLR 09/04 A3020 RMK AO2 T00900043
KLWA 170937Z AUTO 20006KT 10SM CLR 09/05 A3020 RMK AO2 T00910045
KLWA 170917Z AUTO 20006KT 10SM CLR 09/05 A3019 RMK AO2 T00900046
KLWA 170856Z AUTO 20005KT 10SM CLR 09/05 A3020 RMK AO2 T00880046
KLWA 170837Z AUTO 20006KT 10SM CLR 09/05 A3020 RMK AO2 T00900046
KLWA 170817Z AUTO 20005KT 10SM CLR 09/05 A3021 RMK AO2 T00920050
KLWA 170756Z AUTO 20005KT 10SM CLR 09/05 A3021 RMK AO2 T00870046
KLWA 170737Z AUTO 20004KT 10SM CLR 09/04 A3021 RMK AO2 T00860044
KLWA 170717Z AUTO 19004KT 10SM CLR 09/04 A3021 RMK AO2 T00850040
KLWA 170656Z AUTO 20004KT 10SM CLR 09/04 A3021 RMK AO2 T00860040
KLWA 170637Z AUTO 20004KT 10SM CLR 09/04 A3020 RMK AO2 T00880041
KLWA 170617Z AUTO 20004KT 10SM CLR 09/04 A3020 RMK AO2 T00900041
KLWA 170556Z AUTO 20005KT 10SM CLR 09/04 A3021 RMK AO2 T00920041 10092 20064 401470064
KLWA 170537Z AUTO 20004KT 10SM CLR 09/04 A3021 RMK AO2 T00880043
KLWA 170517Z AUTO 19005KT 10SM CLR 09/04 A3021 RMK AO2 T00900044
KLWA 170457Z AUTO 19003KT 10SM CLR 08/05 A3021 RMK AO2 T00830046
KLWA 170437Z AUTO 19003KT 10SM CLR 07/05 A3021 RMK AO2 T00700047
KLWA 170417Z AUTO 00000KT 10SM CLR 07/05 A3021 RMK AO2 T00690049
KLWA 170357Z AUTO 00000KT 10SM CLR 07/05 A3021 RMK AO2 T00710051
KLWA 170337Z AUTO 00000KT 10SM CLR 07/05 A3021 RMK AO2 T00690048
KLWA 170317Z AUTO 00000KT 10SM CLR 08/05 A3022 RMK AO2 T00780053
KLWA 170257Z AUTO 00000KT 10SM CLR 08/05 A3022 RMK AO2 T00810051
KLWA 170237Z AUTO 00000KT 10SM CLR 09/05 A3022 RMK AO2 T00850054
KLWA 170216Z AUTO 18003KT 10SM CLR 08/06 A3021 RMK AO2 T00810055
KLWA 170157Z AUTO 00000KT 10SM CLR 07/06 A3022 RMK AO2 T00730058
KLWA 170137Z AUTO 00000KT 10SM CLR 07/06 A3022 RMK AO2 T00710059
KLWA 170116Z AUTO 00000KT 10SM CLR 07/06 A3022 RMK AO2 T00700059
KLWA 170057Z AUTO 00000KT 10SM CLR 07/06 A3023 RMK AO2 T00730062
KLWA 170037Z AUTO 00000KT 10SM CLR 08/06 A3023 RMK AO2 T00750062
KLWA 170016Z AUTO 00000KT 10SM CLR 08/07 A3023 RMK AO2 T00810065
KLWA 162357Z AUTO 00000KT 10SM CLR 09/07 A3023 RMK AO2 T00860066 10147 20086
KLWA 162337Z AUTO 00000KT 10SM CLR 09/07 A3023 RMK AO2 T00920066
KLWA 162316Z AUTO 00000KT 10SM CLR 10/07 A3023 RMK AO2 T01010065
KLWA 162257Z AUTO 00000KT 10SM CLR 12/06 A3024 RMK AO2 T01210056
KLWA 162237Z AUTO 21003KT 10SM CLR 13/05 A3024 RMK AO2 T01310048
KLWA 162216Z AUTO 20003KT 10SM CLR 14/05 A3024 RMK AO2 T01350046
KLWA 162157Z AUTO 22004KT 10SM CLR 14/04 A3024 RMK AO2 T01360044
KLWA 162137Z AUTO 20006KT 10SM CLR 14/05 A3024 RMK AO2 T01390046
KLWA 162116Z AUTO 25006KT 10SM CLR 14/05 A3025 RMK AO2 T01400049
KLWA 162057Z AUTO 25008KT 10SM CLR 14/05 A3025 RMK AO2 T01410046
KLWA 162037Z AUTO 24008KT 10SM CLR 14/03 A3026 RMK AO2 T01420031
KLWA 162016Z AUTO 25006KT 10SM CLR 14/03 A3026 RMK AO2 T01400028
KLWA 161957Z AUTO 23007G14KT 10SM CLR 15/04 A3026 RMK AO2 T01450037
KLWA 161936Z AUTO 26010KT 10SM CLR 14/04 A3027 RMK AO2 T01430043
KLWA 161917Z AUTO 28007G14KT 10SM CLR 14/05 A3027 RMK AO2 T01380046
KLWA 161857Z AUTO 24006KT 10SM CLR 14/03 A3027 RMK AO2 T01400033
KLWA 161836Z AUTO 30009KT 10SM SCT033 15/04 A3028 RMK AO2 T01450043
KLWA 161817Z AUTO 25008KT 10SM CLR 15/05 A3029 RMK AO2 T01470049
KLWA 161757Z AUTO 25008KT 220V290 10SM CLR 15/05 A3029 RMK AO2 T01450049 10146 20080
KLWA 161736Z AUTO 29009KT 10SM CLR 15/05 A3030 RMK AO2 T01450048
KLWA 161717Z AUTO 25009KT 10SM SCT033 SCT041 15/06 A3030 RMK AO2 T01450056
KLWA 161657Z AUTO 27009G15KT 10SM CLR 14/05 A3030 RMK AO2 T01390049
KLWA 161637Z AUTO 27010KT 10SM CLR 14/05 A3030 RMK AO2 T01420050
KLWA 161617Z AUTO 29008KT 10SM CLR 14/05 A3030 RMK AO2 T01400046
KLWA 161556Z AUTO 27010KT 10SM CLR 14/05 A3030 RMK AO2 T01390049